createdAt,value
2023-05-03T00:02:06.901Z,99.90
2023-05-03T00:04:33.942Z,99.90
2023-05-03T00:07:00.401Z,99.90
2023-05-03T00:09:26.962Z,99.90
2023-05-03T00:11:53.473Z,99.90
2023-05-03T00:14:19.975Z,99.90
2023-05-03T00:16:46.502Z,99.90
2023-05-03T00:19:20.894Z,99.90
2023-05-03T00:21:57.357Z,99.90
2023-05-03T00:24:23.842Z,99.90
2023-05-03T00:26:50.328Z,99.90
2023-05-03T00:29:18.161Z,99.90
2023-05-03T00:31:44.702Z,99.90
2023-05-03T00:34:11.197Z,99.90
2023-05-03T00:36:37.684Z,99.90
2023-05-03T00:39:04.238Z,99.90
2023-05-03T00:41:30.731Z,99.90
2023-05-03T00:43:57.231Z,99.90
2023-05-03T00:46:23.715Z,99.90
2023-05-03T00:48:50.520Z,99.90
2023-05-03T00:51:20.068Z,99.90
2023-05-03T00:53:46.595Z,99.90
2023-05-03T00:56:20.475Z,99.90
2023-05-03T00:58:50.156Z,99.90
2023-05-03T01:01:17.249Z,99.90
2023-05-03T01:03:45.545Z,99.90
2023-05-03T01:08:05.200Z,99.90
2023-05-03T01:10:51.243Z,99.90
2023-05-03T01:16:46.965Z,99.90
2023-05-03T01:19:36.648Z,99.90
2023-05-03T01:24:03.665Z,99.90
2023-05-03T01:26:30.165Z,99.90
2023-05-03T01:28:56.664Z,99.90
2023-05-03T01:32:06.930Z,99.90
2023-05-03T01:35:51.960Z,99.90
2023-05-03T01:38:20.749Z,99.90
2023-05-03T01:40:52.544Z,99.90
2023-05-03T01:43:20.653Z,99.90
2023-05-03T01:45:48.280Z,99.90
2023-05-03T01:48:17.828Z,99.90
2023-05-03T01:50:45.002Z,99.90
2023-05-03T01:53:11.750Z,99.90
2023-05-03T01:55:38.246Z,99.90
2023-05-03T01:58:05.435Z,99.90
2023-05-03T02:00:32.960Z,99.90
2023-05-03T02:02:59.513Z,99.90
2023-05-03T02:05:26.029Z,99.90
2023-05-03T02:07:52.529Z,99.90
2023-05-03T02:10:19.086Z,99.90
2023-05-03T02:12:45.820Z,99.90
2023-05-03T02:15:13.209Z,99.90
2023-05-03T02:17:43.097Z,99.90
2023-05-03T02:20:10.129Z,99.90
2023-05-03T02:22:36.622Z,99.90
2023-05-03T02:25:03.427Z,99.90
2023-05-03T02:27:29.933Z,99.90
2023-05-03T02:29:56.515Z,99.90
2023-05-03T02:32:23.161Z,99.90
2023-05-03T02:34:49.802Z,99.90
2023-05-03T02:37:16.615Z,99.90
2023-05-03T02:39:43.110Z,99.90
2023-05-03T02:42:09.936Z,99.90
2023-05-03T02:44:36.406Z,99.90
2023-05-03T02:47:02.906Z,99.90
2023-05-03T02:49:29.394Z,99.90
2023-05-03T02:51:56.057Z,99.90
2023-05-03T02:54:22.629Z,99.90
2023-05-03T02:56:49.102Z,99.90
2023-05-03T02:59:15.603Z,99.90
2023-05-03T03:01:42.644Z,99.90
2023-05-03T03:04:09.610Z,99.90
2023-05-03T03:06:36.593Z,99.90
2023-05-03T03:09:04.126Z,99.90
2023-05-03T03:11:30.891Z,99.90
2023-05-03T03:13:57.412Z,99.90
2023-05-03T03:16:24.084Z,99.90
2023-05-03T03:18:50.600Z,99.90
2023-05-03T03:21:17.070Z,99.90
2023-05-03T03:23:43.586Z,99.90
2023-05-03T03:26:10.191Z,99.90
2023-05-03T03:28:36.731Z,99.90
2023-05-03T03:31:03.245Z,99.90
2023-05-03T03:33:30.041Z,99.90
2023-05-03T03:35:56.527Z,99.90
2023-05-03T03:38:22.992Z,99.90
2023-05-03T03:40:49.546Z,99.90
2023-05-03T03:43:16.094Z,99.90
2023-05-03T03:45:42.586Z,99.90
2023-05-03T03:48:09.130Z,99.90
2023-05-03T03:50:36.882Z,99.90
2023-05-03T03:53:03.711Z,99.90
2023-05-03T03:55:30.560Z,99.90
2023-05-03T03:57:57.532Z,99.90
2023-05-03T04:00:24.110Z,99.90
2023-05-03T04:02:50.821Z,99.90
2023-05-03T04:05:17.437Z,99.90
2023-05-03T04:07:43.944Z,99.90
2023-05-03T04:10:10.466Z,99.90
2023-05-03T04:12:37.369Z,99.90
2023-05-03T04:15:05.341Z,99.90
2023-05-03T04:17:34.151Z,99.90
2023-05-03T04:20:10.269Z,99.90
2023-05-03T04:22:38.741Z,99.90
2023-05-03T04:25:07.997Z,99.90
2023-05-03T04:27:34.858Z,99.90
2023-05-03T04:30:02.113Z,99.90
2023-05-03T04:32:28.721Z,99.90
2023-05-03T04:34:55.263Z,99.90
2023-05-03T04:37:22.713Z,99.90
2023-05-03T04:39:49.507Z,99.90
2023-05-03T04:42:16.035Z,99.90
2023-05-03T04:44:42.637Z,99.90
2023-05-03T04:47:11.837Z,99.90
2023-05-03T04:49:39.165Z,99.90
2023-05-03T04:52:06.141Z,99.90
2023-05-03T04:54:32.615Z,99.90
2023-05-03T04:56:59.364Z,99.90
2023-05-03T04:59:25.845Z,99.90
2023-05-03T05:01:52.399Z,99.90
2023-05-03T05:04:18.917Z,99.90
2023-05-03T05:06:45.530Z,99.90
2023-05-03T05:09:28.354Z,99.90
2023-05-03T05:11:56.804Z,99.90
2023-05-03T05:14:25.686Z,99.90
2023-05-03T05:16:52.371Z,99.90
2023-05-03T05:19:18.926Z,99.90
2023-05-03T05:21:45.637Z,99.90
2023-05-03T05:24:12.302Z,99.90
2023-05-03T05:26:38.926Z,99.90
2023-05-03T05:29:05.583Z,99.90
2023-05-03T05:31:32.284Z,99.90
2023-05-03T05:33:58.986Z,99.90
2023-05-03T05:36:25.627Z,99.90
2023-05-03T05:38:52.379Z,99.90
2023-05-03T05:41:19.128Z,99.90
2023-05-03T05:43:45.659Z,99.90
2023-05-03T05:46:12.287Z,99.90
2023-05-03T05:48:40.703Z,99.90
2023-05-03T05:51:08.393Z,99.90
2023-05-03T05:53:34.918Z,99.90
2023-05-03T05:56:01.392Z,99.90
2023-05-03T05:58:27.894Z,99.90
2023-05-03T06:01:00.490Z,99.90
2023-05-03T06:03:27.338Z,99.90
2023-05-03T06:05:53.898Z,99.90
2023-05-03T06:08:20.441Z,99.90
2023-05-03T06:10:46.941Z,99.90
2023-05-03T06:13:13.603Z,99.90
2023-05-03T06:15:41.142Z,99.90
2023-05-03T06:18:08.229Z,99.90
2023-05-03T06:20:34.772Z,99.90
2023-05-03T06:23:01.306Z,99.90
2023-05-03T06:25:27.900Z,99.90
2023-05-03T06:27:54.394Z,99.90
2023-05-03T06:30:22.845Z,99.90
2023-05-03T06:32:49.379Z,99.90
2023-05-03T06:35:17.682Z,99.90
2023-05-03T06:37:44.717Z,99.90
2023-05-03T06:40:11.870Z,99.90
2023-05-03T06:42:38.367Z,99.90
2023-05-03T06:45:06.864Z,99.90
2023-05-03T06:47:33.425Z,99.90
2023-05-03T06:50:00.179Z,99.90
2023-05-03T06:52:26.792Z,99.90
2023-05-03T06:54:53.318Z,99.90
2023-05-03T06:57:22.983Z,99.90
2023-05-03T06:59:49.509Z,99.90
2023-05-03T07:02:17.563Z,99.90
2023-05-03T07:04:44.065Z,99.90
2023-05-03T07:07:10.597Z,99.90
2023-05-03T07:09:43.269Z,99.90
2023-05-03T07:12:11.295Z,99.90
2023-05-03T07:14:39.498Z,99.90
2023-05-03T07:17:06.638Z,99.90
2023-05-03T07:19:33.373Z,99.90
2023-05-03T07:21:59.911Z,99.90
2023-05-03T07:24:26.413Z,99.90
2023-05-03T07:26:53.678Z,99.90
2023-05-03T07:29:20.459Z,99.90
2023-05-03T07:31:47.121Z,99.90
2023-05-03T07:34:13.717Z,99.90
2023-05-03T07:36:40.412Z,99.90
2023-05-03T07:39:07.126Z,99.90
2023-05-03T07:41:33.664Z,99.90
2023-05-03T07:44:00.232Z,99.90
2023-05-03T07:46:26.824Z,99.90
2023-05-03T07:48:53.376Z,99.90
2023-05-03T07:51:20.220Z,99.90
2023-05-03T07:53:46.714Z,99.90
2023-05-03T07:56:13.534Z,99.90
2023-05-03T07:58:41.065Z,99.90
2023-05-03T08:01:09.475Z,99.90
2023-05-03T08:03:36.113Z,99.90
2023-05-03T08:06:02.891Z,99.90
2023-05-03T08:08:31.477Z,99.90
2023-05-03T08:10:58.019Z,99.90
2023-05-03T08:13:24.516Z,99.90
2023-05-03T08:15:51.390Z,99.90
2023-05-03T08:18:17.924Z,99.90
2023-05-03T08:20:46.318Z,99.90
2023-05-03T08:23:13.091Z,99.90
2023-05-03T08:25:39.868Z,99.90
2023-05-03T08:28:07.563Z,99.90
2023-05-03T08:30:35.105Z,99.90
2023-05-03T08:33:01.737Z,99.90
2023-05-03T08:35:28.281Z,99.90
2023-05-03T08:37:54.781Z,99.90
2023-05-03T08:40:22.417Z,99.90
2023-05-03T08:42:49.904Z,99.90
2023-05-03T08:45:16.881Z,99.90
2023-05-03T08:47:44.523Z,99.90
2023-05-03T08:50:13.713Z,99.90
2023-05-03T08:52:42.359Z,99.90
2023-05-03T08:55:10.436Z,99.90
2023-05-03T08:57:37.186Z,99.90
2023-05-03T09:00:05.962Z,99.90
2023-05-03T09:02:38.278Z,99.80
2023-05-03T09:07:07.043Z,99.90
2023-05-03T09:09:33.564Z,99.80
2023-05-03T09:12:00.759Z,99.10
2023-05-03T09:14:27.308Z,99.30
2023-05-03T09:16:53.872Z,99.40
2023-05-03T09:19:20.918Z,98.40
2023-05-03T09:21:47.779Z,97.70
2023-05-03T09:24:21.802Z,96.90
2023-05-03T09:26:52.368Z,96.80
2023-05-03T09:29:36.646Z,96.50
2023-05-03T09:32:05.055Z,95.80
2023-05-03T09:34:32.652Z,95.60
2023-05-03T09:36:59.168Z,95.50
2023-05-03T09:39:25.764Z,95.90
2023-05-03T09:41:52.299Z,94.70
2023-05-03T09:44:18.817Z,93.70
2023-05-03T09:47:04.941Z,94.70
2023-05-03T09:49:36.357Z,93.50
2023-05-03T09:52:04.065Z,92.90
2023-05-03T09:54:30.979Z,92.10
2023-05-03T09:56:58.340Z,92.80
2023-05-03T09:59:24.895Z,93.30
2023-05-03T10:01:57.813Z,91.40
2023-05-03T10:04:28.292Z,91.60
2023-05-03T10:07:09.287Z,90.60
2023-05-03T10:09:44.686Z,90.70
2023-05-03T10:12:13.103Z,90.20
2023-05-03T10:14:49.198Z,90.60
2023-05-03T10:17:46.589Z,91.90
2023-05-03T10:20:49.849Z,89.90
2023-05-03T10:23:17.826Z,90.10
2023-05-03T10:26:21.796Z,90.90
2023-05-03T10:28:48.656Z,90.30
2023-05-03T10:31:49.558Z,90.60
2023-05-03T10:34:24.715Z,90.30
2023-05-03T10:36:52.653Z,91.60
2023-05-03T10:39:20.982Z,91.00
2023-05-03T10:42:03.655Z,90.20
2023-05-03T10:44:50.441Z,91.20
2023-05-03T10:47:21.572Z,89.80
2023-05-03T10:50:23.621Z,90.20
2023-05-03T10:52:50.199Z,87.80
2023-05-03T10:55:24.089Z,86.90
2023-05-03T10:57:58.187Z,86.40
2023-05-03T11:00:58.520Z,86.40
2023-05-03T11:05:08.778Z,86.00
2023-05-03T11:07:36.764Z,86.00
2023-05-03T11:10:17.992Z,87.40
2023-05-03T11:12:44.584Z,89.70
2023-05-03T11:15:11.710Z,89.00
2023-05-03T11:17:39.007Z,86.20
2023-05-03T11:20:09.205Z,88.40
2023-05-03T11:22:36.224Z,90.20
2023-05-03T11:25:03.212Z,89.30
2023-05-03T11:27:29.989Z,83.70
2023-05-03T11:29:58.594Z,85.60
2023-05-03T11:32:29.691Z,86.70
2023-05-03T11:34:58.470Z,84.90
2023-05-03T11:37:26.203Z,87.00
2023-05-03T11:39:53.033Z,86.70
2023-05-03T11:42:19.556Z,89.50
2023-05-03T11:44:46.045Z,84.40
2023-05-03T11:47:12.673Z,84.10
2023-05-03T11:49:39.324Z,88.00
2023-05-03T11:52:05.916Z,87.10
2023-05-03T11:54:32.423Z,88.30
2023-05-03T11:56:59.870Z,87.90
2023-05-03T11:59:38.766Z,88.70
2023-05-03T12:02:08.592Z,90.20
2023-05-03T12:04:43.881Z,90.40
2023-05-03T12:07:13.724Z,90.70
2023-05-03T12:09:43.608Z,90.50
2023-05-03T12:12:21.544Z,86.00
2023-05-03T12:15:04.322Z,86.20
2023-05-03T12:17:42.834Z,86.10
2023-05-03T12:22:57.643Z,87.20
2023-05-03T12:25:27.839Z,89.50
2023-05-03T12:30:32.477Z,84.60
2023-05-03T12:33:01.106Z,85.60
2023-05-03T12:35:33.462Z,85.30
2023-05-03T12:38:04.868Z,86.50
2023-05-03T12:40:34.666Z,85.90
2023-05-03T12:43:03.023Z,87.50
2023-05-03T12:45:34.277Z,89.40
2023-05-03T12:48:02.034Z,86.70
2023-05-03T12:50:32.078Z,86.10
2023-05-03T12:53:02.293Z,86.70
2023-05-03T12:55:34.126Z,88.80
2023-05-03T13:00:35.912Z,93.50
2023-05-03T13:05:36.208Z,95.70
2023-05-03T13:08:09.044Z,96.20
2023-05-03T13:10:37.951Z,96.50
2023-05-03T13:13:04.527Z,97.00
2023-05-03T13:15:30.993Z,97.40
2023-05-03T13:18:00.792Z,97.30
2023-05-03T13:20:28.265Z,97.30
2023-05-03T13:22:54.923Z,97.50
2023-05-03T13:25:21.430Z,97.10
2023-05-03T13:27:49.472Z,97.50
2023-05-03T13:30:16.362Z,97.50
2023-05-03T13:32:42.967Z,98.00
2023-05-03T13:35:09.970Z,98.00
2023-05-03T13:37:36.501Z,98.10
2023-05-03T13:40:04.112Z,97.60
2023-05-03T13:42:30.788Z,98.00
2023-05-03T13:44:57.963Z,98.10
2023-05-03T13:47:26.966Z,97.40
2023-05-03T13:49:56.725Z,97.30
2023-05-03T13:52:24.219Z,97.50
2023-05-03T13:54:51.466Z,97.40
2023-05-03T13:57:18.590Z,97.00
2023-05-03T13:59:45.117Z,97.10
2023-05-03T14:02:11.585Z,97.10
2023-05-03T14:04:38.387Z,97.10
2023-05-03T14:07:04.993Z,96.90
2023-05-03T14:09:31.692Z,97.00
2023-05-03T14:11:58.213Z,96.90
2023-05-03T14:14:27.080Z,95.90
2023-05-03T14:16:53.662Z,96.40
2023-05-03T14:19:20.370Z,96.80
2023-05-03T14:21:48.962Z,96.10
2023-05-03T14:24:15.912Z,96.10
2023-05-03T14:26:42.430Z,96.10
2023-05-03T14:29:08.906Z,95.60
2023-05-03T14:31:35.731Z,95.60
2023-05-03T14:34:02.289Z,95.00
2023-05-03T14:36:33.918Z,94.40
2023-05-03T14:39:00.424Z,95.10
2023-05-03T14:41:26.960Z,94.40
2023-05-03T14:43:53.507Z,94.90
2023-05-03T14:46:20.058Z,94.90
2023-05-03T14:48:46.657Z,95.20
2023-05-03T14:51:14.180Z,94.60
2023-05-03T14:53:40.717Z,94.50
2023-05-03T14:56:07.347Z,94.80
2023-05-03T14:58:33.888Z,94.80
2023-05-03T15:01:00.529Z,95.00
2023-05-03T15:03:27.204Z,95.20
2023-05-03T15:05:53.701Z,94.30
2023-05-03T15:08:20.696Z,94.50
2023-05-03T15:10:47.370Z,94.70
2023-05-03T15:13:15.447Z,94.70
2023-05-03T15:15:42.790Z,94.80
2023-05-03T15:18:09.445Z,94.60
2023-05-03T15:20:36.237Z,94.60
2023-05-03T15:23:05.770Z,94.60
2023-05-03T15:25:32.359Z,95.00
2023-05-03T15:28:01.251Z,95.20
2023-05-03T15:30:30.067Z,94.60
2023-05-03T15:32:56.548Z,94.80
2023-05-03T15:35:23.090Z,94.60
2023-05-03T15:37:49.645Z,94.80
2023-05-03T15:40:16.833Z,94.50
2023-05-03T15:42:43.311Z,95.00
2023-05-03T15:45:10.100Z,95.00
2023-05-03T15:47:36.587Z,94.70
2023-05-03T15:50:05.548Z,95.20
2023-05-03T15:52:32.768Z,95.10
2023-05-03T15:54:59.225Z,95.20
2023-05-03T15:57:26.074Z,95.30
2023-05-03T15:59:53.351Z,95.10
2023-05-03T16:02:20.690Z,95.90
2023-05-03T16:04:50.271Z,96.10
2023-05-03T16:07:17.095Z,96.30
2023-05-03T16:09:43.643Z,95.10
2023-05-03T16:12:10.295Z,95.90
2023-05-03T16:14:36.795Z,96.00
2023-05-03T16:17:03.271Z,96.20
2023-05-03T16:19:31.083Z,96.30
2023-05-03T16:21:57.576Z,96.40
2023-05-03T16:24:24.066Z,96.10
2023-05-03T16:26:50.593Z,96.30
2023-05-03T16:29:17.435Z,96.60
2023-05-03T16:31:45.653Z,97.40
2023-05-03T16:34:12.739Z,96.70
2023-05-03T16:36:42.028Z,96.70
2023-05-03T16:39:10.705Z,96.70
2023-05-03T16:41:37.203Z,97.70
2023-05-03T16:44:07.741Z,96.10
2023-05-03T16:46:39.362Z,97.10
2023-05-03T16:49:06.448Z,96.90
2023-05-03T16:51:33.475Z,98.20
2023-05-03T16:54:03.803Z,99.10
2023-05-03T16:56:31.439Z,99.40
2023-05-03T16:59:02.216Z,99.90
2023-05-03T17:01:28.686Z,99.90
2023-05-03T17:03:55.159Z,99.10
2023-05-03T17:06:21.648Z,94.70
2023-05-03T17:08:48.264Z,95.10
2023-05-03T17:11:15.329Z,94.00
2023-05-03T17:13:42.043Z,97.00
2023-05-03T17:16:14.331Z,98.10
2023-05-03T17:18:41.973Z,99.80
2023-05-03T17:21:09.474Z,99.60
2023-05-03T17:23:38.833Z,98.70
2023-05-03T17:26:08.734Z,99.50
2023-05-03T17:28:36.338Z,98.10
2023-05-03T17:31:04.766Z,98.30
2023-05-03T17:33:31.973Z,98.70
2023-05-03T17:36:01.806Z,99.60
2023-05-03T17:38:28.397Z,99.60
2023-05-03T17:40:54.952Z,99.70
2023-05-03T17:43:21.531Z,99.90
2023-05-03T17:45:48.023Z,99.90
2023-05-03T17:48:14.882Z,99.90
2023-05-03T17:50:42.420Z,99.90
2023-05-03T17:53:09.532Z,99.90
2023-05-03T17:55:40.420Z,99.90
2023-05-03T17:58:08.649Z,99.90
2023-05-03T18:00:35.175Z,99.90
2023-05-03T18:03:02.499Z,99.90
2023-05-03T18:05:34.578Z,99.90
2023-05-03T18:08:01.030Z,99.90
2023-05-03T18:10:27.570Z,99.90
2023-05-03T18:12:54.124Z,99.90
2023-05-03T18:15:21.149Z,99.90
2023-05-03T18:17:47.705Z,99.90
2023-05-03T18:20:14.255Z,99.90
2023-05-03T18:22:41.474Z,99.90
2023-05-03T18:25:09.696Z,99.90
2023-05-03T18:27:36.775Z,99.90
2023-05-03T18:30:05.910Z,99.90
2023-05-03T18:32:33.090Z,99.90
2023-05-03T18:35:00.042Z,99.90
2023-05-03T18:37:26.871Z,99.90
2023-05-03T18:39:53.388Z,99.90
2023-05-03T18:42:20.556Z,99.90
2023-05-03T18:44:47.048Z,99.90
2023-05-03T18:47:15.415Z,99.90
2023-05-03T18:49:46.158Z,99.90
2023-05-03T18:52:12.640Z,99.90
2023-05-03T18:54:39.157Z,99.90
2023-05-03T18:57:05.619Z,99.90
2023-05-03T18:59:32.101Z,99.90
2023-05-03T19:01:58.587Z,99.90
2023-05-03T19:04:25.111Z,99.90
2023-05-03T19:06:51.618Z,99.90
2023-05-03T19:09:18.124Z,99.90
2023-05-03T19:11:44.695Z,99.90
2023-05-03T19:14:11.169Z,99.90
2023-05-03T19:16:37.967Z,99.90
2023-05-03T19:19:04.486Z,99.90
2023-05-03T19:21:30.984Z,99.90
2023-05-03T19:23:57.430Z,99.90
2023-05-03T19:26:23.913Z,99.90
2023-05-03T19:28:50.399Z,99.90
2023-05-03T19:31:17.124Z,99.90
2023-05-03T19:33:43.781Z,99.90
2023-05-03T19:36:14.062Z,99.90
2023-05-03T19:38:40.547Z,99.90
2023-05-03T19:41:11.611Z,99.90
2023-05-03T19:43:39.130Z,99.90
2023-05-03T19:46:06.419Z,99.90
2023-05-03T19:48:33.450Z,99.90
2023-05-03T19:51:00.413Z,99.90
2023-05-03T19:53:27.981Z,99.90
2023-05-03T19:55:57.389Z,99.90
2023-05-03T19:58:24.727Z,99.90
2023-05-03T20:00:51.629Z,99.90
2023-05-03T20:03:18.600Z,99.90
2023-05-03T20:05:46.327Z,99.90
2023-05-03T20:08:13.397Z,99.90
2023-05-03T20:10:40.238Z,99.90
2023-05-03T20:13:07.192Z,99.90
2023-05-03T20:15:35.641Z,99.90
2023-05-03T20:18:03.355Z,99.90
2023-05-03T20:20:30.107Z,99.90
2023-05-03T20:22:56.589Z,99.90
2023-05-03T20:25:24.239Z,99.90
2023-05-03T20:27:51.357Z,99.90
2023-05-03T20:30:17.950Z,99.90
2023-05-03T20:32:44.479Z,99.90
2023-05-03T20:35:11.836Z,99.90
2023-05-03T20:37:38.673Z,99.90
2023-05-03T20:40:07.504Z,99.90
2023-05-03T20:42:34.008Z,99.90
2023-05-03T20:45:00.516Z,99.90
2023-05-03T20:47:27.064Z,99.90
2023-05-03T20:49:53.538Z,99.90
2023-05-03T20:52:20.033Z,99.90
2023-05-03T20:54:46.579Z,99.90
2023-05-03T20:57:15.941Z,99.90
2023-05-03T20:59:44.084Z,99.90
2023-05-03T21:02:11.426Z,99.90
2023-05-03T21:04:37.989Z,99.90
2023-05-03T21:07:04.478Z,99.90
2023-05-03T21:09:31.094Z,99.90
2023-05-03T21:11:57.883Z,99.90
2023-05-03T21:14:24.494Z,99.90
2023-05-03T21:16:51.007Z,99.90
2023-05-03T21:19:17.496Z,99.90
2023-05-03T21:21:43.988Z,99.90
2023-05-03T21:24:10.512Z,99.90
2023-05-03T21:26:37.054Z,99.90
2023-05-03T21:29:03.549Z,99.90
2023-05-03T21:31:30.118Z,99.90
2023-05-03T21:33:57.385Z,99.90
2023-05-03T21:36:23.995Z,99.90
2023-05-03T21:38:52.279Z,99.90
2023-05-03T21:41:19.464Z,99.90
2023-05-03T21:43:45.939Z,99.90
2023-05-03T21:46:12.427Z,99.90
2023-05-03T21:48:39.553Z,99.90
2023-05-03T21:51:06.049Z,99.90
2023-05-03T21:53:34.625Z,99.90
2023-05-03T21:56:01.098Z,99.90
2023-05-03T21:58:27.576Z,99.90
2023-05-03T22:00:54.060Z,99.90
2023-05-03T22:03:20.638Z,99.90
2023-05-03T22:05:49.620Z,99.90
2023-05-03T22:08:17.409Z,99.90
2023-05-03T22:10:45.216Z,99.90
2023-05-03T22:13:11.789Z,99.90
2023-05-03T22:15:38.382Z,99.90
2023-05-03T22:18:04.876Z,99.90
2023-05-03T22:20:31.501Z,99.90
2023-05-03T22:22:57.963Z,99.90
2023-05-03T22:25:26.437Z,99.90
2023-05-03T22:27:53.804Z,99.90
2023-05-03T22:30:21.015Z,99.90
2023-05-03T22:32:47.582Z,99.90
2023-05-03T22:35:14.525Z,99.90
2023-05-03T22:37:41.708Z,99.90
2023-05-03T22:40:09.065Z,99.90
2023-05-03T22:42:35.768Z,99.90
2023-05-03T22:45:02.614Z,99.90
2023-05-03T22:47:29.220Z,99.90
2023-05-03T22:49:56.033Z,99.90
2023-05-03T22:52:22.574Z,99.90
2023-05-03T22:54:54.322Z,99.90
2023-05-03T22:57:20.811Z,99.90
2023-05-03T22:59:47.281Z,99.90
2023-05-03T23:02:14.038Z,99.90
2023-05-03T23:04:40.540Z,99.90
2023-05-03T23:07:07.021Z,99.90
2023-05-03T23:09:33.497Z,99.90
2023-05-03T23:11:59.961Z,99.90
2023-05-03T23:14:26.514Z,99.90
2023-05-03T23:16:53.074Z,99.90
2023-05-03T23:19:19.894Z,99.90
2023-05-03T23:21:46.372Z,99.90
2023-05-03T23:24:12.840Z,99.90
2023-05-03T23:26:39.588Z,99.90
2023-05-03T23:29:07.485Z,99.90
2023-05-03T23:31:36.392Z,99.90
2023-05-03T23:34:04.317Z,99.90
2023-05-03T23:36:31.987Z,99.90
2023-05-03T23:38:58.488Z,99.90
2023-05-03T23:41:25.357Z,99.90
2023-05-03T23:43:51.842Z,99.90
2023-05-03T23:46:18.415Z,99.90
2023-05-03T23:48:44.957Z,99.90
2023-05-03T23:51:11.455Z,99.90
2023-05-03T23:53:37.939Z,99.90
2023-05-03T23:56:04.509Z,99.90
2023-05-03T23:58:31.022Z,99.90
